Shawbury (EGOS)

METAR

EGOS 100450Z AUTO 25008KT 9999 FEW044/// 05/04 Q1024

QNH
1024
TEMP
5 °C
TAF

TAF TAF EGOS 171634Z 1718/1821 CNL